createdAt,value
2023-01-02T00:01:19.526Z,62.68
2023-01-02T00:03:47.435Z,62.61
2023-01-02T00:06:17.771Z,62.82
2023-01-02T00:08:49.034Z,62.75
2023-01-02T00:11:17.177Z,62.50
2023-01-02T00:13:45.033Z,62.07
2023-01-02T00:16:15.206Z,62.22
2023-01-02T00:18:43.025Z,63.09
2023-01-02T00:21:11.125Z,62.87
2023-01-02T00:23:39.265Z,63.62
2023-01-02T00:26:08.850Z,63.55
2023-01-02T00:28:37.579Z,63.04
2023-01-02T00:31:08.865Z,63.04
2023-01-02T00:33:37.242Z,63.01
2023-01-02T00:36:07.080Z,62.51
2023-01-02T00:38:38.027Z,62.16
2023-01-02T00:41:08.571Z,61.84
2023-01-02T00:43:36.547Z,61.35
2023-01-02T00:46:10.933Z,61.14
2023-01-02T00:48:39.747Z,61.12
2023-01-02T00:51:07.690Z,61.21
2023-01-02T00:53:36.075Z,61.69
2023-01-02T00:56:03.952Z,61.06
2023-01-02T00:58:33.522Z,61.04
2023-01-02T01:01:01.363Z,60.61
2023-01-02T01:03:29.882Z,61.74
2023-01-02T01:05:57.644Z,62.20
2023-01-02T01:08:25.440Z,63.76
2023-01-02T01:10:53.325Z,62.59
2023-01-02T01:13:21.487Z,62.12
2023-01-02T01:15:50.680Z,61.66
2023-01-02T01:18:18.516Z,62.63
2023-01-02T01:20:46.283Z,62.36
2023-01-02T01:23:14.055Z,63.17
2023-01-02T01:25:41.829Z,62.66
2023-01-02T01:28:09.967Z,62.78
2023-01-02T01:30:37.738Z,63.45
2023-01-02T01:33:06.829Z,64.32
2023-01-02T01:35:34.935Z,65.59
2023-01-02T01:38:02.744Z,65.80
2023-01-02T01:40:37.555Z,67.12
2023-01-02T01:43:05.433Z,66.28
2023-01-02T01:45:34.924Z,67.71
2023-01-02T01:48:04.186Z,67.17
2023-01-02T01:50:36.025Z,67.18
2023-01-02T01:53:11.020Z,67.12
2023-01-02T01:55:42.783Z,66.95
2023-01-02T01:58:13.936Z,68.08
2023-01-02T02:00:43.063Z,68.02
2023-01-02T02:03:15.680Z,66.64
2023-01-02T02:05:46.100Z,68.29
2023-01-02T02:08:19.823Z,67.52
2023-01-02T02:10:48.381Z,66.35
2023-01-02T02:13:16.513Z,66.25
2023-01-02T02:15:49.693Z,66.13
2023-01-02T02:18:30.359Z,66.23
2023-01-02T02:21:07.659Z,66.04
2023-01-02T02:24:08.806Z,65.31
2023-01-02T02:27:13.318Z,65.76
2023-01-02T02:30:07.922Z,65.24
2023-01-02T02:32:52.651Z,66.23
2023-01-02T02:35:33.210Z,66.59
2023-01-02T02:38:08.458Z,66.32
2023-01-02T02:40:50.432Z,66.60
2023-01-02T02:43:25.968Z,66.29
2023-01-02T02:46:05.383Z,65.57
2023-01-02T02:48:46.728Z,64.26
2023-01-02T02:51:20.959Z,64.19
2023-01-02T02:53:55.989Z,62.65
2023-01-02T02:56:29.419Z,62.53
2023-01-02T02:58:58.087Z,62.34
2023-01-02T03:01:31.290Z,62.06
2023-01-02T03:03:59.499Z,61.63
2023-01-02T03:06:45.683Z,61.66
2023-01-02T03:09:19.997Z,61.48
2023-01-02T03:11:56.167Z,62.18
2023-01-02T03:14:32.581Z,62.07
2023-01-02T03:17:04.368Z,62.04
2023-01-02T03:19:38.185Z,61.98
2023-01-02T03:22:13.400Z,62.27
2023-01-02T03:24:44.253Z,62.35
2023-01-02T03:27:16.645Z,62.47
2023-01-02T03:29:48.242Z,62.40
2023-01-02T03:32:23.710Z,62.03
2023-01-02T03:34:54.120Z,62.67
2023-01-02T03:37:26.974Z,63.02
2023-01-02T03:39:58.912Z,62.79
2023-01-02T03:42:30.250Z,62.88
2023-01-02T03:45:05.904Z,62.99
2023-01-02T03:47:42.907Z,62.30
2023-01-02T03:50:16.563Z,62.61
2023-01-02T03:52:44.450Z,62.28
2023-01-02T03:55:12.786Z,62.07
2023-01-02T03:57:57.094Z,61.68
2023-01-02T04:00:36.271Z,62.02
2023-01-02T04:03:11.771Z,62.05
2023-01-02T04:05:45.628Z,61.89
2023-01-02T04:08:21.389Z,61.43
2023-01-02T04:10:58.029Z,61.97
2023-01-02T04:13:33.385Z,62.51
2023-01-02T04:16:04.100Z,62.13
2023-01-02T04:18:46.173Z,62.67
2023-01-02T04:21:20.430Z,62.47
2023-01-02T04:23:50.765Z,62.83
2023-01-02T04:26:25.359Z,62.60
2023-01-02T04:28:54.021Z,62.72
2023-01-02T04:31:29.321Z,62.67
2023-01-02T04:34:01.360Z,62.45
2023-01-02T04:36:29.307Z,62.53
2023-01-02T04:38:57.116Z,62.60
2023-01-02T04:41:27.824Z,62.48
2023-01-02T04:43:55.658Z,62.40
2023-01-02T04:46:24.492Z,63.23
2023-01-02T04:48:52.880Z,62.86
2023-01-02T04:51:25.515Z,62.37
2023-01-02T04:53:54.318Z,62.18
2023-01-02T04:56:23.156Z,61.94
2023-01-02T04:58:51.568Z,61.26
2023-01-02T05:01:21.740Z,61.12
2023-01-02T05:03:52.557Z,61.02
2023-01-02T05:06:20.734Z,61.06
2023-01-02T05:08:49.925Z,60.62
2023-01-02T05:11:21.049Z,60.72
2023-01-02T05:13:49.212Z,60.77
2023-01-02T05:16:17.079Z,60.52
2023-01-02T05:18:47.197Z,60.07
2023-01-02T05:21:29.247Z,60.27
2023-01-02T05:24:00.287Z,60.00
2023-01-02T05:26:30.731Z,59.97
2023-01-02T05:28:58.533Z,60.12
2023-01-02T05:31:26.953Z,59.44
2023-01-02T05:33:55.718Z,59.71
2023-01-02T05:36:24.636Z,60.28
2023-01-02T05:38:55.543Z,60.58
2023-01-02T05:41:24.950Z,60.43
2023-01-02T05:43:52.721Z,60.94
2023-01-02T05:46:22.208Z,60.91
2023-01-02T05:48:49.965Z,61.03
2023-01-02T05:51:20.602Z,61.00
2023-01-02T05:53:50.966Z,60.69
2023-01-02T05:56:22.213Z,60.78
2023-01-02T05:58:51.538Z,60.82
2023-01-02T06:01:22.478Z,60.74
2023-01-02T06:03:52.031Z,60.81
2023-01-02T06:06:21.577Z,60.76
2023-01-02T06:08:52.517Z,61.21
2023-01-02T06:11:20.415Z,61.09
2023-01-02T06:13:48.649Z,60.62
2023-01-02T06:16:17.889Z,60.26
2023-01-02T06:18:45.825Z,60.14
2023-01-02T06:21:15.796Z,60.91
2023-01-02T06:23:44.016Z,60.75
2023-01-02T06:26:14.121Z,60.53
2023-01-02T06:28:42.589Z,60.63
2023-01-02T06:31:12.229Z,60.45
2023-01-02T06:33:42.109Z,60.96
2023-01-02T06:36:11.789Z,61.37
2023-01-02T06:38:40.590Z,60.87
2023-01-02T06:41:09.705Z,61.13
2023-01-02T06:43:42.852Z,60.56
2023-01-02T06:46:13.825Z,60.20
2023-01-02T06:48:43.400Z,60.35
2023-01-02T06:51:13.720Z,60.62
2023-01-02T06:53:43.181Z,60.79
2023-01-02T06:56:12.286Z,60.86
2023-01-02T06:58:41.031Z,60.89
2023-01-02T07:01:12.551Z,60.81
2023-01-02T07:03:40.503Z,60.53
2023-01-02T07:06:13.028Z,59.95
2023-01-02T07:08:41.890Z,59.94
2023-01-02T07:11:12.489Z,59.35
2023-01-02T07:13:41.279Z,57.95
2023-01-02T07:16:11.057Z,57.42
2023-01-02T07:18:38.994Z,56.87
2023-01-02T07:21:09.581Z,56.96
2023-01-02T07:23:37.762Z,57.95
2023-01-02T07:26:07.682Z,58.32
2023-01-02T07:28:36.895Z,59.01
2023-01-02T07:31:08.610Z,60.09
2023-01-02T07:33:36.809Z,61.26
2023-01-02T07:36:12.105Z,60.74
2023-01-02T07:38:40.048Z,61.30
2023-01-02T07:41:15.364Z,61.12
2023-01-02T07:43:44.559Z,63.32
2023-01-02T07:46:13.171Z,63.11
2023-01-02T07:48:41.096Z,64.05
2023-01-02T07:51:10.452Z,64.64
2023-01-02T07:53:38.618Z,63.92
2023-01-02T07:56:06.764Z,66.36
2023-01-02T07:58:35.399Z,65.35
2023-01-02T08:01:07.273Z,65.66
2023-01-02T08:03:35.049Z,65.45
2023-01-02T08:06:07.654Z,65.71
2023-01-02T08:08:37.157Z,66.47
2023-01-02T08:11:07.026Z,66.25
2023-01-02T08:13:34.938Z,65.97
2023-01-02T08:16:07.551Z,66.99
2023-01-02T08:18:35.862Z,66.94
2023-01-02T08:21:04.435Z,66.11
2023-01-02T08:23:36.586Z,66.76
2023-01-02T08:26:06.914Z,66.38
2023-01-02T08:28:35.884Z,65.62
2023-01-02T08:31:09.524Z,65.94
2023-01-02T08:33:37.387Z,65.70
2023-01-02T08:36:05.496Z,65.85
2023-01-02T08:38:37.624Z,64.64
2023-01-02T08:41:05.666Z,64.96
2023-01-02T08:43:36.206Z,65.10
2023-01-02T08:46:05.551Z,65.20
2023-01-02T08:48:33.676Z,63.65
2023-01-02T08:51:01.624Z,63.04
2023-01-02T08:53:29.611Z,62.08
2023-01-02T08:56:23.709Z,61.15
2023-01-02T08:58:53.239Z,60.71
2023-01-02T09:01:22.641Z,59.88
2023-01-02T09:03:51.513Z,59.39
2023-01-02T09:06:22.310Z,58.51
2023-01-02T09:08:52.178Z,58.83
2023-01-02T09:11:28.031Z,58.88
2023-01-02T09:14:08.873Z,58.50
2023-01-02T09:16:36.800Z,58.08
2023-01-02T09:19:04.987Z,58.58
2023-01-02T09:21:32.848Z,59.18
2023-01-02T09:24:00.920Z,58.71
2023-01-02T09:26:32.395Z,57.17
2023-01-02T09:29:00.161Z,55.08
2023-01-02T09:31:28.010Z,53.74
2023-01-02T09:33:58.318Z,52.25
2023-01-02T09:36:26.173Z,51.65
2023-01-02T09:38:55.255Z,50.44
2023-01-02T09:41:35.013Z,50.49
2023-01-02T09:44:06.915Z,50.03
2023-01-02T09:46:41.376Z,50.40
2023-01-02T09:49:14.145Z,50.25
2023-01-02T09:51:45.174Z,50.76
2023-01-02T09:54:19.555Z,50.74
2023-01-02T09:56:53.260Z,50.55
2023-01-02T09:59:30.203Z,50.85
2023-01-02T10:02:08.615Z,50.22
2023-01-02T10:04:56.754Z,49.98
2023-01-02T10:07:30.632Z,49.48
2023-01-02T10:10:04.471Z,49.02
2023-01-02T10:12:39.026Z,48.75
2023-01-02T10:15:11.610Z,48.36
2023-01-02T10:17:46.872Z,47.79
2023-01-02T10:20:25.913Z,47.51
2023-01-02T10:22:58.099Z,47.09
2023-01-02T10:25:31.815Z,48.54
2023-01-02T10:28:08.375Z,48.53
2023-01-02T10:30:42.525Z,48.57
2023-01-02T10:33:17.636Z,48.24
2023-01-02T10:35:51.057Z,48.14
2023-01-02T10:38:21.017Z,47.72
2023-01-02T10:40:51.520Z,46.54
2023-01-02T10:43:20.677Z,47.06
2023-01-02T10:45:48.551Z,45.90
2023-01-02T10:48:21.493Z,44.51
2023-01-02T10:50:52.851Z,44.80
2023-01-02T10:53:24.028Z,44.10
2023-01-02T10:55:51.951Z,43.94
2023-01-02T10:58:24.541Z,43.77
2023-01-02T11:01:03.788Z,43.54
2023-01-02T11:03:32.811Z,43.09
2023-01-02T11:06:26.680Z,43.16
2023-01-02T11:08:58.044Z,42.06
2023-01-02T11:11:27.353Z,42.49
2023-01-02T11:14:05.835Z,41.20
2023-01-02T11:16:39.273Z,41.13
2023-01-02T11:19:25.592Z,40.49
2023-01-02T11:21:57.515Z,41.37
2023-01-02T11:24:28.509Z,40.78
2023-01-02T11:26:57.086Z,40.26
2023-01-02T11:29:31.648Z,38.33
2023-01-02T11:32:03.114Z,39.68
2023-01-02T11:34:35.707Z,38.17
2023-01-02T11:37:07.270Z,38.44
2023-01-02T11:39:35.776Z,37.73
2023-01-02T11:42:32.780Z,37.59
2023-01-02T11:45:08.208Z,38.27
2023-01-02T11:47:41.041Z,38.73
2023-01-02T11:50:12.668Z,38.71
2023-01-02T11:52:47.022Z,39.70
2023-01-02T11:55:26.661Z,40.82
2023-01-02T11:57:59.785Z,40.94
2023-01-02T12:00:33.842Z,40.78
2023-01-02T12:03:07.527Z,41.26
2023-01-02T12:05:43.985Z,41.49
2023-01-02T12:08:22.086Z,42.31
2023-01-02T12:10:56.821Z,41.87
2023-01-02T12:13:44.166Z,41.09
2023-01-02T12:16:27.892Z,41.88
2023-01-02T12:19:13.329Z,41.76
2023-01-02T12:21:54.313Z,42.20
2023-01-02T12:24:55.113Z,42.46
2023-01-02T12:27:33.329Z,42.02
2023-01-02T12:30:08.550Z,42.06
2023-01-02T12:33:05.680Z,42.34
2023-01-02T12:36:16.895Z,42.43
2023-01-02T12:38:59.878Z,42.96
2023-01-02T12:41:33.207Z,43.64
2023-01-02T12:44:17.655Z,44.19
2023-01-02T12:47:19.990Z,44.89
2023-01-02T12:50:14.903Z,42.95
2023-01-02T12:52:56.495Z,43.62
2023-01-02T12:55:38.637Z,43.26
2023-01-02T12:58:14.903Z,43.33
2023-01-02T13:01:01.579Z,42.96
2023-01-02T13:04:05.940Z,42.38
2023-01-02T13:06:47.110Z,43.09
2023-01-02T13:09:23.393Z,43.87
2023-01-02T13:12:02.306Z,43.41
2023-01-02T13:14:37.018Z,43.07
2023-01-02T13:17:37.234Z,43.20
2023-01-02T13:20:11.842Z,43.08
2023-01-02T13:22:48.850Z,42.42
2023-01-02T13:25:21.474Z,42.95
2023-01-02T13:27:50.575Z,43.06
2023-01-02T13:30:45.375Z,43.93
2023-01-02T13:33:30.349Z,43.57
2023-01-02T13:36:01.704Z,44.09
2023-01-02T13:38:37.117Z,44.49
2023-01-02T13:41:04.897Z,44.42
2023-01-02T13:43:35.488Z,44.29
2023-01-02T13:46:05.260Z,45.81
2023-01-02T13:48:38.678Z,45.21
2023-01-02T13:51:14.090Z,45.46
2023-01-02T13:53:45.019Z,45.40
2023-01-02T13:56:15.055Z,45.38
2023-01-02T13:58:51.991Z,46.26
2023-01-02T14:02:04.745Z,46.01
2023-01-02T14:04:39.039Z,46.05
2023-01-02T14:07:45.918Z,46.35
2023-01-02T14:10:39.596Z,46.89
2023-01-02T14:13:26.118Z,47.24
2023-01-02T14:16:22.077Z,47.15
2023-01-02T14:19:15.428Z,47.45
2023-01-02T14:21:47.349Z,47.64
2023-01-02T14:24:29.928Z,47.91
2023-01-02T14:27:02.209Z,47.98
2023-01-02T14:29:31.330Z,49.71
2023-01-02T14:32:04.491Z,49.45
2023-01-02T14:34:34.534Z,50.33
2023-01-02T14:37:03.745Z,51.13
2023-01-02T14:39:36.850Z,50.94
2023-01-02T14:42:42.043Z,51.51
2023-01-02T14:45:16.394Z,51.29
2023-01-02T14:47:50.268Z,51.37
2023-01-02T14:50:23.457Z,51.42
2023-01-02T14:53:00.033Z,51.92
2023-01-02T14:55:32.203Z,52.03
2023-01-02T14:58:04.206Z,52.45
2023-01-02T15:00:37.398Z,52.26
2023-01-02T15:03:18.996Z,52.86
2023-01-02T15:05:51.280Z,53.16
2023-01-02T15:08:32.486Z,53.07
2023-01-02T15:11:23.250Z,53.19
2023-01-02T15:14:03.708Z,52.68
2023-01-02T15:16:42.558Z,51.86
2023-01-02T15:19:19.204Z,52.26
2023-01-02T15:21:47.965Z,51.39
2023-01-02T15:24:24.070Z,51.00
2023-01-02T15:26:52.624Z,51.08
2023-01-02T15:29:29.369Z,50.63
2023-01-02T15:31:59.065Z,50.64
2023-01-02T15:34:31.386Z,50.76
2023-01-02T15:37:02.911Z,51.01
2023-01-02T15:39:37.942Z,51.88
2023-01-02T15:42:28.110Z,51.66
2023-01-02T15:45:10.203Z,51.95
2023-01-02T15:47:39.445Z,52.29
2023-01-02T15:50:13.461Z,53.40
2023-01-02T15:52:41.713Z,54.02
2023-01-02T15:55:15.029Z,54.31
2023-01-02T15:57:48.215Z,53.94
2023-01-02T16:00:37.170Z,54.88
2023-01-02T16:03:05.794Z,55.24
2023-01-02T16:05:46.095Z,55.06
2023-01-02T16:08:22.455Z,55.96
2023-01-02T16:11:01.034Z,56.04
2023-01-02T16:13:49.926Z,57.10
2023-01-02T16:16:20.871Z,57.63
2023-01-02T16:18:52.630Z,58.39
2023-01-02T16:21:22.130Z,58.63
2023-01-02T16:23:53.683Z,58.95
2023-01-02T16:26:31.789Z,58.66
2023-01-02T16:28:59.979Z,59.58
2023-01-02T16:31:29.392Z,59.58
2023-01-02T16:34:15.812Z,60.03
2023-01-02T16:36:43.729Z,60.37
2023-01-02T16:39:49.428Z,60.49
2023-01-02T16:42:37.591Z,60.39
2023-01-02T16:45:07.241Z,60.44
2023-01-02T16:47:41.497Z,60.59
2023-01-02T16:50:18.160Z,61.77
2023-01-02T16:52:46.543Z,62.64
2023-01-02T16:55:17.387Z,62.58
2023-01-02T16:57:45.193Z,63.89
2023-01-02T17:00:14.256Z,63.63
2023-01-02T17:02:43.723Z,63.98
2023-01-02T17:05:19.643Z,64.12
2023-01-02T17:07:47.592Z,64.13
2023-01-02T17:10:16.453Z,64.63
2023-01-02T17:12:45.528Z,65.49
2023-01-02T17:15:14.311Z,66.00
2023-01-02T17:17:43.803Z,65.63
2023-01-02T17:20:13.753Z,65.56
2023-01-02T17:22:42.022Z,65.46
2023-01-02T17:25:14.299Z,66.14
2023-01-02T17:27:42.987Z,66.85
2023-01-02T17:30:12.862Z,67.07
2023-01-02T17:32:40.834Z,67.65
2023-01-02T17:35:11.043Z,67.80
2023-01-02T17:37:39.504Z,66.21
2023-01-02T17:40:09.921Z,67.76
2023-01-02T17:42:37.912Z,67.43
2023-01-02T17:45:08.727Z,67.20
2023-01-02T17:48:00.652Z,67.14
2023-01-02T17:50:26.045Z,67.54
2023-01-02T17:52:53.956Z,68.05
2023-01-02T17:55:21.951Z,69.05
2023-01-02T17:57:50.163Z,68.34
2023-01-02T18:00:23.212Z,69.25
2023-01-02T18:02:52.853Z,68.64
2023-01-02T18:05:22.151Z,69.16
2023-01-02T18:07:51.333Z,69.97
2023-01-02T18:10:20.786Z,73.19
2023-01-02T18:12:50.220Z,73.25
2023-01-02T18:15:20.780Z,74.12
2023-01-02T18:17:49.217Z,73.16
2023-01-02T18:20:18.998Z,72.25
2023-01-02T18:22:50.162Z,72.24
2023-01-02T18:25:24.429Z,71.98
2023-01-02T18:27:52.693Z,72.20
2023-01-02T18:30:22.978Z,71.97
2023-01-02T18:32:54.112Z,71.37
2023-01-02T18:38:19.264Z,71.63
2023-01-02T18:40:48.496Z,71.09
2023-01-02T18:43:23.295Z,71.76
2023-01-02T18:45:54.552Z,71.51
2023-01-02T18:48:23.796Z,71.07
2023-01-02T18:50:58.272Z,70.55
2023-01-02T18:53:31.422Z,71.78
2023-01-02T18:56:03.932Z,72.01
2023-01-02T18:58:40.806Z,72.07
2023-01-02T19:01:27.586Z,72.33
2023-01-02T19:04:02.908Z,72.97
2023-01-02T19:06:31.440Z,72.85
2023-01-02T19:09:07.102Z,73.05
2023-01-02T19:11:53.816Z,73.26
2023-01-02T19:14:25.713Z,72.40
2023-01-02T19:17:02.877Z,73.22
2023-01-02T19:19:34.390Z,73.16
2023-01-02T19:22:11.778Z,72.21
2023-01-02T19:24:39.737Z,72.14
2023-01-02T19:27:24.111Z,71.40
2023-01-02T19:29:52.680Z,72.40
2023-01-02T19:32:27.701Z,72.05
2023-01-02T19:34:56.873Z,72.38
2023-01-02T19:37:40.862Z,71.97
2023-01-02T19:40:19.435Z,72.23
2023-01-02T19:42:49.959Z,72.01
2023-01-02T19:45:20.336Z,71.47
2023-01-02T19:47:49.315Z,71.87
2023-01-02T19:50:19.247Z,72.06
2023-01-02T19:52:47.488Z,72.31
2023-01-02T19:55:18.874Z,72.33
2023-01-02T19:57:47.390Z,72.71
2023-01-02T20:00:19.356Z,72.75
2023-01-02T20:02:49.068Z,72.80
2023-01-02T20:05:21.953Z,74.22
2023-01-02T20:07:50.947Z,73.01
2023-01-02T20:10:19.140Z,72.68
2023-01-02T20:12:49.531Z,72.60
2023-01-02T20:15:20.893Z,73.00
2023-01-02T20:17:48.834Z,73.04
2023-01-02T20:20:19.270Z,73.57
2023-01-02T20:22:49.365Z,73.12
2023-01-02T20:25:19.783Z,72.27
2023-01-02T20:27:48.457Z,72.87
2023-01-02T20:30:23.934Z,72.42
2023-01-02T20:32:52.396Z,72.01
2023-01-02T20:35:20.207Z,72.28
2023-01-02T20:37:48.651Z,72.31
2023-01-02T20:40:18.980Z,72.72
2023-01-02T20:42:46.945Z,72.51
2023-01-02T20:45:14.872Z,72.37
2023-01-02T20:47:44.035Z,72.45
2023-01-02T20:50:11.992Z,73.50
2023-01-02T20:52:39.923Z,73.17
2023-01-02T20:55:08.532Z,73.57
2023-01-02T20:57:36.659Z,75.07
2023-01-02T21:00:09.390Z,73.98
2023-01-02T21:02:37.435Z,74.03
2023-01-02T21:05:07.115Z,74.58
2023-01-02T21:07:34.862Z,74.05
2023-01-02T21:10:02.729Z,75.21
2023-01-02T21:12:59.503Z,74.28
2023-01-02T21:15:45.091Z,73.82
2023-01-02T21:18:16.799Z,73.60
2023-01-02T21:20:47.193Z,73.70
2023-01-02T21:23:15.759Z,73.19
2023-01-02T21:25:43.919Z,73.72
2023-01-02T21:28:12.718Z,73.59
2023-01-02T21:30:43.417Z,73.31
2023-01-02T21:33:11.645Z,73.66
2023-01-02T21:35:40.121Z,73.07
2023-01-02T21:38:09.386Z,72.81
2023-01-02T21:40:37.421Z,72.84
2023-01-02T21:43:05.339Z,72.84
2023-01-02T21:45:33.296Z,72.71
2023-01-02T21:48:01.129Z,72.62
2023-01-02T21:50:29.212Z,72.79
2023-01-02T21:52:57.136Z,72.02
2023-01-02T21:55:26.545Z,72.65
2023-01-02T21:58:12.869Z,72.14
2023-01-02T22:00:41.838Z,72.04
2023-01-02T22:03:09.912Z,72.03
2023-01-02T22:05:37.832Z,72.17
2023-01-02T22:08:06.272Z,71.72
2023-01-02T22:10:35.462Z,72.79
2023-01-02T22:13:03.288Z,72.08
2023-01-02T22:15:31.087Z,71.83
2023-01-02T22:17:58.892Z,71.56
2023-01-02T22:20:26.671Z,71.37
2023-01-02T22:22:54.426Z,72.57
2023-01-02T22:25:23.303Z,72.55
2023-01-02T22:27:52.480Z,71.99
2023-01-02T22:30:27.268Z,71.40
2023-01-02T22:32:59.686Z,72.56
2023-01-02T22:35:28.360Z,71.89
2023-01-02T22:37:57.317Z,72.01
2023-01-02T22:40:25.259Z,71.44
2023-01-02T22:43:00.972Z,71.51
2023-01-02T22:45:33.935Z,72.08
2023-01-02T22:48:04.568Z,72.42
2023-01-02T22:50:42.896Z,72.11
2023-01-02T22:53:19.530Z,71.51
2023-01-02T22:55:47.844Z,71.28
2023-01-02T22:58:17.467Z,71.12
2023-01-02T23:00:47.648Z,71.28
2023-01-02T23:03:17.568Z,70.77
2023-01-02T23:05:45.522Z,71.51
2023-01-02T23:08:14.349Z,71.03
2023-01-02T23:10:42.304Z,72.48
2023-01-02T23:13:10.152Z,71.96
2023-01-02T23:16:00.802Z,72.01
2023-01-02T23:18:50.266Z,71.71
2023-01-02T23:21:22.748Z,71.66
2023-01-02T23:23:51.601Z,72.08
2023-01-02T23:26:20.213Z,72.47
2023-01-02T23:31:41.895Z,72.37
2023-01-02T23:34:11.075Z,73.85
2023-01-02T23:41:03.343Z,73.05
2023-01-02T23:43:31.237Z,72.81
2023-01-02T23:45:59.177Z,73.93
2023-01-02T23:48:30.744Z,75.25
2023-01-02T23:50:58.893Z,74.37
2023-01-02T23:53:27.370Z,74.99
2023-01-02T23:55:55.571Z,73.90
2023-01-02T23:58:24.265Z,73.65
